.
WxDataArchive / Data Records for 2011-01-23
2011-01-22 January 2011 2011-01-24

Data Records for Sunday, 23 January 2011

Time	Temp	Chill	HIndex	Humid	Dewpt	 Wind 	HiWind	WindDir	Rain 	Barom 
-----	----	-----	------	-----	-----	------	------	-------	-----	----- 
00:00	14.3	14.3	14.3	83	10.1	0	1	248	0.00	30.087 
00:05	14.4	14.4	14.4	83	10.2	0	1	248	0.00	30.087 
00:10	14.6	14.6	14.6	83	10.4	0	1	248	0.00	30.087 
00:15	14.6	14.6	14.6	83	10.4	0	1	248	0.00	30.088 
00:20	14.6	14.6	14.6	83	10.4	0	1	248	0.00	30.088 
00:25	14.6	14.6	14.6	83	10.4	0	1	248	0.00	30.088 
00:30	14.6	14.6	14.6	83	10.4	0	1	248	0.00	30.091 
00:35	14.6	14.6	14.6	83	10.4	0	1	248	0.00	30.091 
00:40	14.6	14.6	14.6	83	10.4	0	1	248	0.00	30.091 
00:45	14.6	14.6	14.6	83	10.4	0	1	248	0.00	30.101 
00:50	14.6	14.6	14.6	83	10.4	0	1	248	0.00	30.101 
00:55	14.6	14.6	14.6	83	10.4	0	2	248	0.00	30.101 
01:00	14.6	14.6	14.6	83	10.4	0	1	248	0.00	30.104 
01:05	14.3	14.3	14.3	82	9.8	0	2	248	0.00	30.104 
01:10	14.1	14.1	14.1	81	9.4	0	2	248	0.00	30.104 
01:15	14.0	14.0	14.0	79	8.7	0	2	315	0.00	30.106 
01:20	13.8	13.8	13.8	77	7.9	0	2	338	0.00	30.106 
01:25	13.6	13.6	13.6	73	6.6	0	3	0	0.00	30.106 
01:30	13.5	13.5	13.5	72	6.2	0	2	0	0.00	30.117 
01:35	13.3	13.3	13.3	71	5.7	0	2	22	0.00	30.117 
01:40	13.1	13.1	13.1	71	5.5	0	0	---	0.00	30.117 
01:45	12.8	12.8	12.8	71	5.2	0	1	22	0.00	30.120 
01:50	12.6	12.6	12.6	70	4.7	0	0	---	0.00	30.120 
01:55	12.4	12.4	12.4	70	4.5	0	0	---	0.00	30.120 
02:00	12.1	12.1	12.1	70	4.2	0	0	---	0.00	30.125 
02:05	11.7	11.7	11.7	71	4.1	0	0	---	0.00	30.125 
02:10	11.4	11.4	11.4	71	3.9	0	0	---	0.00	30.125 
02:15	10.9	10.9	10.9	71	3.4	0	0	---	0.00	30.136 
02:20	10.4	10.4	10.4	71	2.9	0	0	---	0.00	30.136 
02:25	9.9	9.9	9.9	72	2.7	0	0	---	0.00	30.136 
02:30	9.3	9.3	9.3	72	2.1	0	0	---	0.00	30.148 
02:35	8.8	8.8	8.8	73	1.9	0	0	---	0.00	30.148 
02:40	8.4	8.4	8.4	73	1.6	0	0	---	0.00	30.148 
02:45	8.1	8.1	8.1	73	1.3	0	0	---	0.00	30.156 
02:50	7.9	7.9	7.9	74	1.4	0	0	---	0.00	30.156 
02:55	7.9	7.9	7.9	74	1.4	0	0	---	0.00	30.156 
03:00	7.7	7.7	7.7	73	0.9	0	0	---	0.00	30.164 
03:05	7.7	7.7	7.7	73	0.9	0	0	---	0.00	30.164 
03:10	7.6	7.6	7.6	73	0.8	0	0	---	0.00	30.164 
03:15	7.4	7.4	7.4	73	0.6	0	0	---	0.00	30.171 
03:20	7.4	7.4	7.4	73	0.6	0	0	---	0.00	30.171 
03:25	7.4	7.4	7.4	73	0.6	0	0	---	0.00	30.171 
03:30	7.4	7.4	7.4	73	0.6	0	0	---	0.00	30.174 
03:35	7.2	7.2	7.2	73	0.4	0	0	---	0.00	30.174 
03:40	7.0	7.0	7.0	73	0.2	0	0	---	0.00	30.174 
03:45	6.7	6.7	6.7	73	-0.1	0	0	---	0.00	30.188 
03:50	6.3	6.3	6.3	73	-0.5	0	0	---	0.00	30.188 
03:55	6.1	6.1	6.1	73	-0.7	0	0	---	0.00	30.188 
04:00	6.3	6.3	6.3	75	0.1	0	1	22	0.00	30.190 
04:05	6.9	6.9	6.9	75	0.7	0	0	---	0.00	30.190 
04:10	7.2	7.2	7.2	74	0.7	0	0	---	0.00	30.190 
04:15	7.4	7.4	7.4	74	0.9	0	0	---	0.00	30.201 
04:20	7.6	7.6	7.6	73	0.8	0	1	22	0.00	30.201 
04:25	7.7	7.7	7.7	73	0.9	0	0	---	0.00	30.201 
04:30	7.7	7.7	7.7	72	0.6	0	0	---	0.00	30.202 
04:35	7.7	7.7	7.7	71	0.3	0	0	---	0.00	30.202 
04:40	7.7	7.7	7.7	71	0.3	0	1	22	0.00	30.202 
04:45	7.6	7.6	7.6	71	0.2	0	0	---	0.00	30.203 
04:50	7.6	7.6	7.6	71	0.2	0	0	---	0.00	30.203 
04:55	7.4	7.4	7.4	70	-0.3	0	1	22	0.00	30.203 
05:00	7.2	7.2	7.2	70	-0.5	0	0	---	0.00	30.207 
05:05	7.2	7.2	7.2	71	-0.2	0	0	---	0.00	30.207 
05:10	7.0	7.0	7.0	71	-0.4	0	0	---	0.00	30.207 
05:15	6.9	6.9	6.9	71	-0.5	0	0	---	0.00	30.213 
05:20	6.7	6.7	6.7	71	-0.7	0	1	22	0.00	30.213 
05:25	6.7	6.7	6.7	72	-0.4	0	0	---	0.00	30.213 
05:30	6.5	6.5	6.5	72	-0.6	0	0	---	0.00	30.221 
05:35	6.3	6.3	6.3	72	-0.8	0	0	---	0.00	30.221 
05:40	6.1	6.1	6.1	72	-1.0	0	1	22	0.00	30.221 
05:45	6.0	6.0	6.0	73	-0.8	0	0	---	0.00	30.230 
05:50	5.8	5.8	5.8	73	-1.0	0	1	22	0.00	30.230 
05:55	5.8	5.8	5.8	73	-1.0	0	1	22	0.00	30.230 
06:00	5.6	5.6	5.6	73	-1.1	0	1	22	0.00	30.236 
06:05	5.4	5.4	5.4	73	-1.3	0	0	---	0.00	30.236 
06:10	5.2	5.2	5.2	73	-1.5	0	0	---	0.00	30.236 
06:15	4.8	4.8	4.8	74	-1.6	0	0	---	0.00	30.248 
06:20	4.7	4.7	4.7	74	-1.7	0	0	---	0.00	30.248 
06:25	4.5	4.5	4.5	74	-1.9	0	1	22	0.00	30.248 
06:30	4.3	4.3	4.3	75	-1.8	0	0	---	0.00	30.257 
06:35	4.1	4.1	4.1	75	-2.0	0	0	---	0.00	30.257 
06:40	3.7	3.7	3.7	75	-2.4	0	0	---	0.00	30.257 
06:45	3.4	3.4	3.4	75	-2.7	0	0	---	0.00	30.264 
06:50	3.2	3.2	3.2	76	-2.6	0	0	---	0.00	30.264 
06:55	2.8	2.8	2.8	76	-3.0	0	0	---	0.00	30.264 
07:00	2.6	2.6	2.6	76	-3.2	0	0	---	0.00	30.273 
07:05	2.2	2.2	2.2	76	-3.6	0	0	---	0.00	30.273 
07:10	1.8	1.8	1.8	76	-4.0	0	0	---	0.00	30.273 
07:15	1.5	1.5	1.5	76	-4.3	0	0	---	0.00	30.282 
07:20	1.3	1.3	1.3	77	-4.2	0	0	---	0.00	30.282 
07:25	1.1	1.1	1.1	77	-4.4	0	0	---	0.00	30.282 
07:30	0.9	0.9	0.9	77	-4.6	0	0	---	0.00	30.290 
07:35	0.7	0.7	0.7	77	-4.8	0	0	---	0.00	30.290 
07:40	0.7	0.7	0.7	78	-4.5	0	0	---	0.00	30.290 
07:45	0.7	0.7	0.7	78	-4.5	0	0	---	0.00	30.299 
07:50	0.5	0.5	0.5	78	-4.7	0	0	---	0.00	30.299 
07:55	0.5	0.5	0.5	78	-4.7	0	0	---	0.00	30.299 
08:00	0.5	0.5	0.5	78	-4.7	0	0	---	0.00	30.308 
08:05	0.3	0.3	0.3	78	-4.9	0	0	---	0.00	30.308 
08:10	0.1	0.1	0.1	78	-5.1	0	0	---	0.00	30.308 
08:15	0.1	0.1	0.1	79	-4.8	0	0	---	0.00	30.319 
08:20	0.0	0.0	0.0	79	-4.9	0	0	---	0.00	30.319 
08:25	0.0	0.0	0.0	79	-4.9	0	0	---	0.00	30.319 
08:30	0.1	0.1	0.1	79	-4.8	0	0	---	0.00	30.325 
08:35	0.1	0.1	0.1	79	-4.8	0	0	---	0.00	30.325 
08:40	0.5	0.5	0.5	80	-4.2	0	0	---	0.00	30.325 
08:45	0.9	0.9	0.9	80	-3.8	0	0	---	0.00	30.331 
08:50	1.5	1.5	1.5	81	-3.0	0	0	---	0.00	30.331 
08:55	2.2	2.2	2.2	81	-2.3	0	0	---	0.00	30.331 
09:00	3.0	3.0	3.0	81	-1.5	0	0	---	0.00	30.337 
09:05	3.5	3.5	3.5	81	-1.0	0	0	---	0.00	30.337 
09:10	4.1	4.1	4.1	81	-0.4	0	0	---	0.00	30.337 
09:15	4.3	4.3	4.3	81	-0.2	0	0	---	0.00	30.340 
09:20	4.7	4.7	4.7	80	-0.1	0	1	22	0.00	30.340 
09:25	5.0	5.0	5.0	79	-0.1	0	1	22	0.00	30.340 
09:30	5.4	5.4	5.4	79	0.3	0	1	22	0.00	30.343 
09:35	5.8	5.8	5.8	78	0.4	0	0	---	0.00	30.343 
09:40	6.3	6.3	6.3	77	0.7	0	0	---	0.00	30.343 
09:45	6.9	6.9	6.9	75	0.7	0	1	22	0.00	30.350 
09:50	7.9	7.9	7.9	73	1.1	0	2	22	0.00	30.350 
09:55	8.4	8.4	8.4	69	0.4	0	4	22	0.00	30.350 
10:00	8.8	8.8	8.8	65	-0.5	1	5	90	0.00	30.361 
10:05	8.6	8.6	8.6	65	-0.7	1	3	90	0.00	30.361 
10:10	8.6	8.6	8.6	64	-1.0	0	2	90	0.00	30.361 
10:15	8.6	8.6	8.6	63	-1.4	1	5	90	0.00	30.366 
10:20	8.6	8.6	8.6	63	-1.4	1	3	90	0.00	30.366 
10:25	8.6	8.6	8.6	62	-1.7	1	2	90	0.00	30.366 
10:30	8.8	8.8	8.8	62	-1.5	0	2	90	0.00	30.371 
10:35	9.0	9.0	9.0	61	-1.7	1	2	90	0.00	30.371 
10:40	9.3	9.3	9.3	62	-1.0	0	2	90	0.00	30.371 
10:45	9.3	9.3	9.3	61	-1.4	1	3	90	0.00	30.376 
10:50	9.2	9.2	9.2	60	-1.8	2	5	90	0.00	30.376 
10:55	9.2	9.2	9.2	60	-1.8	1	3	90	0.00	30.376 
11:00	9.2	9.2	9.2	59	-2.2	2	6	90	0.00	30.379 
11:05	9.2	9.2	9.2	59	-2.2	2	5	90	0.00	30.379 
11:10	9.2	9.2	9.2	58	-2.5	2	5	112	0.00	30.379 
11:15	9.3	9.3	9.3	58	-2.4	2	5	112	0.00	30.383 
11:20	9.5	9.5	9.5	58	-2.3	2	5	112	0.00	30.383 
11:25	9.7	9.7	9.7	58	-2.1	2	4	112	0.00	30.383 
11:30	9.9	9.9	9.9	58	-1.9	1	4	112	0.00	30.379 
11:35	10.0	10.0	10.0	57	-2.2	1	4	112	0.00	30.379 
11:40	10.4	10.4	10.4	58	-1.4	2	4	112	0.00	30.379 
11:45	10.7	10.7	10.7	57	-1.5	1	3	112	0.00	30.378 
11:50	10.9	10.9	10.9	57	-1.3	1	2	112	0.00	30.378 
11:55	11.2	11.2	11.2	58	-0.7	1	4	112	0.00	30.378 
12:00	11.2	11.2	11.2	57	-1.0	1	3	112	0.00	30.375 
12:05	11.4	11.4	11.4	56	-1.2	1	3	112	0.00	30.375 
12:10	11.6	11.6	11.6	56	-1.0	1	2	90	0.00	30.375 
12:15	11.6	11.6	11.6	56	-1.0	0	2	112	0.00	30.373 
12:20	11.6	11.6	11.6	54	-1.8	2	5	112	0.00	30.373 
12:25	11.4	11.4	11.4	54	-2.0	1	4	90	0.00	30.373 
12:30	11.6	11.6	11.6	55	-1.4	1	3	90	0.00	30.366 
12:35	11.6	11.6	11.6	55	-1.4	1	5	90	0.00	30.366 
12:40	11.7	11.7	11.7	55	-1.3	1	4	90	0.00	30.366 
12:45	11.9	11.9	11.9	56	-0.7	1	3	90	0.00	30.362 
12:50	11.7	11.7	11.7	56	-0.9	2	5	135	0.00	30.362 
12:55	11.9	11.9	11.9	55	-1.1	1	3	90	0.00	30.362 
13:00	11.9	11.9	11.9	54	-1.5	1	4	90	0.00	30.363 
13:05	11.7	11.7	11.7	54	-1.7	3	6	90	0.00	30.363 
13:10	11.7	11.7	11.7	54	-1.7	2	5	90	0.00	30.363 
13:15	11.9	11.9	11.9	55	-1.1	1	3	90	0.00	30.363 
13:20	12.1	12.1	12.1	55	-0.9	1	3	90	0.00	30.363 
13:25	12.4	12.4	12.4	55	-0.7	1	3	90	0.00	30.363 
13:30	12.6	12.6	12.6	54	-0.9	1	4	90	0.00	30.359 
13:35	12.6	12.6	12.6	54	-0.9	1	5	90	0.00	30.359 
13:40	12.4	12.4	12.4	53	-1.4	1	4	112	0.00	30.359 
13:45	12.4	12.4	12.4	54	-1.0	2	6	112	0.00	30.358 
13:50	12.4	12.4	12.4	54	-1.0	3	6	90	0.00	30.358 
13:55	12.4	12.4	12.4	54	-1.0	1	4	90	0.00	30.358 
14:00	12.4	12.4	12.4	55	-0.7	1	3	112	0.00	30.351 
14:05	12.6	12.6	12.6	56	-0.1	3	5	90	0.00	30.351 
14:10	12.8	12.8	12.8	56	0.1	1	5	90	0.00	30.351 
14:15	12.9	12.9	12.9	55	-0.2	1	3	68	0.00	30.351 
14:20	12.9	12.9	12.9	55	-0.2	1	4	135	0.00	30.351 
14:25	12.9	12.9	12.9	55	-0.2	2	4	112	0.00	30.351 
14:30	12.9	12.9	12.9	54	-0.6	2	4	112	0.00	30.351 
14:35	12.9	12.9	12.9	54	-0.6	3	5	112	0.00	30.351 
14:40	12.8	12.8	12.8	55	-0.3	2	5	112	0.00	30.351 
14:45	12.9	12.9	12.9	56	0.2	2	4	90	0.00	30.345 
14:50	12.9	12.9	12.9	54	-0.6	2	6	112	0.00	30.345 
14:55	12.8	12.8	12.8	55	-0.3	3	6	112	0.00	30.345 
15:00	12.9	12.9	12.9	55	-0.2	1	3	90	0.00	30.346 
15:05	13.1	13.1	13.1	55	0.0	1	3	112	0.00	30.346 
15:10	13.3	13.3	13.3	55	0.2	1	4	90	0.00	30.346 
15:15	13.3	13.3	13.3	56	0.6	1	3	90	0.00	30.351 
15:20	13.3	13.3	13.3	55	0.2	1	3	90	0.00	30.351 
15:25	13.1	13.1	13.1	55	0.0	2	4	112	0.00	30.351 
15:30	13.1	13.1	13.1	56	0.4	1	3	135	0.00	30.353 
15:35	13.1	13.1	13.1	57	0.8	1	2	90	0.00	30.353 
15:40	13.3	13.3	13.3	55	0.2	1	4	90	0.00	30.353 
15:45	13.5	13.5	13.5	55	0.4	1	4	270	0.00	30.354 
15:50	13.5	13.5	13.5	55	0.4	1	2	112	0.00	30.354 
15:55	13.5	13.5	13.5	55	0.4	1	4	90	0.00	30.354 
16:00	13.3	13.3	13.3	55	0.2	2	5	90	0.00	30.353 
16:05	12.9	12.9	12.9	55	-0.2	1	4	90	0.00	30.353 
16:10	12.9	12.9	12.9	55	-0.2	2	4	90	0.00	30.353 
16:15	12.8	12.8	12.8	56	0.1	1	4	135	0.00	30.353 
16:20	12.8	12.8	12.8	57	0.5	2	5	112	0.00	30.353 
16:25	12.8	12.8	12.8	56	0.1	1	4	68	0.00	30.353 
16:30	12.8	12.8	12.8	56	0.1	1	5	90	0.00	30.353 
16:35	12.8	12.8	12.8	55	-0.3	1	4	90	0.00	30.353 
16:40	12.6	12.6	12.6	54	-0.9	2	5	90	0.00	30.353 
16:45	12.6	12.6	12.6	55	-0.5	1	2	90	0.00	30.351 
16:50	12.6	12.6	12.6	55	-0.5	1	4	112	0.00	30.351 
16:55	12.4	12.4	12.4	55	-0.7	1	2	90	0.00	30.351 
17:00	12.4	12.4	12.4	56	-0.3	1	3	112	0.00	30.353 
17:05	12.3	12.3	12.3	56	-0.4	1	3	112	0.00	30.353 
17:10	12.1	12.1	12.1	57	-0.2	1	5	90	0.00	30.353 
17:15	12.1	12.1	12.1	57	-0.2	2	4	90	0.00	30.352 
17:20	11.7	11.7	11.7	57	-0.6	2	5	90	0.00	30.352 
17:25	11.6	11.6	11.6	58	-0.3	1	3	90	0.00	30.352 
17:30	11.6	11.6	11.6	58	-0.3	1	3	90	0.00	30.353 
17:35	11.2	11.2	11.2	58	-0.7	0	2	90	0.00	30.353 
17:40	11.1	11.1	11.1	59	-0.4	0	1	90	0.00	30.353 
17:45	10.9	10.9	10.9	59	-0.6	0	1	90	0.00	30.354 
17:50	10.5	10.5	10.5	60	-0.6	0	0	---	0.00	30.354 
17:55	10.2	10.2	10.2	60	-0.9	0	1	90	0.00	30.354 
18:00	10.0	10.0	10.0	61	-0.7	0	1	90	0.00	30.354 
18:05	9.9	9.9	9.9	62	-0.5	0	1	90	0.00	30.354 
18:10	9.5	9.5	9.5	62	-0.9	0	0	---	0.00	30.354 
18:15	9.3	9.3	9.3	62	-1.0	0	0	---	0.00	30.360 
18:20	9.0	9.0	9.0	62	-1.3	0	0	---	0.00	30.360 
18:25	8.6	8.6	8.6	62	-1.7	0	0	---	0.00	30.360 
18:30	8.3	8.3	8.3	63	-1.7	0	0	---	0.00	30.362 
18:35	7.9	7.9	7.9	63	-2.0	0	0	---	0.00	30.362 
18:40	7.4	7.4	7.4	65	-1.9	0	0	---	0.00	30.362 
18:45	7.0	7.0	7.0	65	-2.2	0	0	---	0.00	30.362 
18:50	6.9	6.9	6.9	67	-1.7	0	0	---	0.00	30.362 
18:55	6.7	6.7	6.7	67	-1.9	0	0	---	0.00	30.362 
19:00	6.5	6.5	6.5	67	-2.1	0	0	---	0.00	30.362 
19:05	6.3	6.3	6.3	68	-2.0	0	0	---	0.00	30.362 
19:10	6.0	6.0	6.0	68	-2.3	0	0	---	0.00	30.362 
19:15	5.8	5.8	5.8	69	-2.1	0	0	---	0.00	30.361 
19:20	5.4	5.4	5.4	69	-2.5	0	0	---	0.00	30.361 
19:25	5.2	5.2	5.2	69	-2.7	0	0	---	0.00	30.361 
19:30	5.2	5.2	5.2	70	-2.4	0	1	90	0.00	30.362 
19:35	5.2	5.2	5.2	70	-2.4	0	0	---	0.00	30.362 
19:40	5.2	5.2	5.2	70	-2.4	0	0	---	0.00	30.362 
19:45	5.2	5.2	5.2	70	-2.4	0	1	90	0.00	30.365 
19:50	5.2	5.2	5.2	70	-2.4	0	0	---	0.00	30.365 
19:55	5.2	5.2	5.2	70	-2.4	0	0	---	0.00	30.365 
20:00	5.0	5.0	5.0	70	-2.6	0	0	---	0.00	30.366 
20:05	4.8	4.8	4.8	70	-2.8	0	0	---	0.00	30.366 
20:10	4.8	4.8	4.8	71	-2.5	0	1	90	0.00	30.366 
20:15	5.0	5.0	5.0	71	-2.3	0	1	90	0.00	30.361 
20:20	5.2	5.2	5.2	71	-2.1	0	1	90	0.00	30.361 
20:25	5.6	5.6	5.6	70	-2.0	0	2	90	0.00	30.361 
20:30	5.8	5.8	5.8	70	-1.8	0	1	90	0.00	30.354 
20:35	5.8	5.8	5.8	69	-2.1	0	1	90	0.00	30.354 
20:40	5.6	5.6	5.6	69	-2.3	0	2	90	0.00	30.354 
20:45	5.6	5.6	5.6	69	-2.3	0	1	90	0.00	30.357 
20:50	5.6	5.6	5.6	69	-2.3	0	0	---	0.00	30.357 
20:55	5.4	5.4	5.4	69	-2.5	0	0	---	0.00	30.357 
21:00	5.0	5.0	5.0	69	-2.9	0	0	---	0.00	30.350 
21:05	4.7	4.7	4.7	69	-3.2	0	0	---	0.00	30.350 
21:10	4.3	4.3	4.3	69	-3.6	0	0	---	0.00	30.350 
21:15	4.1	4.1	4.1	69	-3.8	0	0	---	0.00	30.339 
21:20	3.9	3.9	3.9	71	-3.4	0	0	---	0.00	30.339 
21:25	3.9	3.9	3.9	72	-3.1	0	1	90	0.00	30.339 
21:30	4.5	4.5	4.5	72	-2.5	0	1	90	0.00	30.328 
21:35	5.0	5.0	5.0	71	-2.3	0	2	90	0.00	30.328 
21:40	5.6	5.6	5.6	70	-2.0	1	3	90	0.00	30.328 
21:45	5.8	5.8	5.8	69	-2.1	0	2	90	0.00	30.326 
21:50	6.0	6.0	6.0	69	-1.9	0	2	90	0.00	30.326 
21:55	6.0	6.0	6.0	69	-1.9	0	2	90	0.00	30.326 
22:00	6.0	6.0	6.0	69	-1.9	0	1	90	0.00	30.329 
22:05	6.0	6.0	6.0	69	-1.9	0	0	---	0.00	30.329 
22:10	6.0	6.0	6.0	69	-1.9	0	1	90	0.00	30.329 
22:15	6.0	6.0	6.0	69	-1.9	0	0	---	0.00	30.327 
22:20	6.0	6.0	6.0	69	-1.9	0	1	90	0.00	30.327 
22:25	5.8	5.8	5.8	68	-2.4	0	1	90	0.00	30.327 
22:30	5.8	5.8	5.8	68	-2.4	0	1	90	0.00	30.319 
22:35	5.8	5.8	5.8	68	-2.4	0	2	90	0.00	30.319 
22:40	5.8	5.8	5.8	68	-2.4	0	1	90	0.00	30.319 
22:45	5.8	5.8	5.8	67	-2.8	0	1	90	0.00	30.325 
22:50	5.8	5.8	5.8	67	-2.8	0	1	90	0.00	30.325 
22:55	5.6	5.6	5.6	67	-2.9	0	0	---	0.00	30.325 
23:00	5.4	5.4	5.4	67	-3.1	0	0	---	0.00	30.325 
23:05	5.2	5.2	5.2	67	-3.3	0	0	---	0.00	30.325 
23:10	5.0	5.0	5.0	67	-3.5	0	0	---	0.00	30.325 
23:15	4.8	4.8	4.8	68	-3.4	0	0	---	0.00	30.328 
23:20	4.8	4.8	4.8	68	-3.4	0	1	90	0.00	30.328 
23:25	5.0	5.0	5.0	69	-2.9	0	1	90	0.00	30.328 
23:30	5.2	5.2	5.2	69	-2.7	0	2	90	0.00	30.323 
23:35	5.4	5.4	5.4	68	-2.8	0	2	90	0.00	30.323 
23:40	5.4	5.4	5.4	68	-2.8	0	2	90	0.00	30.323 
23:45	5.4	5.4	5.4	68	-2.8	0	2	90	0.00	30.321 
23:50	5.4	5.4	5.4	68	-2.8	1	2	90	0.00	30.321 
23:55	5.6	5.6	5.6	68	-2.6	0	2	90	0.00	30.321 

CoCoRaHS
IN-AL-39
A2 Web Hosting
Creative Commons License
GoDaddy
search engine by freefind advanced

loaded 2018-11-16 00:04:25 • last modified 2010-11-18 10:43:29
Privacy PolicyDisclaimer
• wx.awcolley.com is powered by PmWiki v.2002016 •
• all content (unless otherwise noted) © 2018 A W Colley